Tuguegarao, Philippines
Current Conditions -  °F | °C
As of 6:00 PM on Friday 24 Oct 2014 (Local Time) from RPLI Reporting Station
Few Clouds Few Clouds  
Wind Chill: 82°   Ceiling: Unl
Heat Index: 88°   Visibility: 6mi
Dew Point: 73°   Wind: 5mph
Humidity: 74%   Direction: 160°SSE
Pressure: 29.83"   Gusts: NA
Location:  17.62°N, 121.72°E
Report Text: RPLI 241000Z 16004KT 9999 FEW018CB FEW100 28/23 Q1010 NOSIGRMK A2983 CB E
Loading
Personal Weather Stations






























Interactive Weather Map
Tropical Storm Tracking
New forecast layout! Learn more

10-Day Weather Forecast

Advertisements
Track Severe Weather on mobile